Time;durP1;ratioP1;P1;durP2;ratioP2;P2;SDS_P1;SDS_P2;PMS_P1;PMS_P2;Temp;Humidity;BMP_temperature;BMP_pressure;BME280_temperature;BME280_humidity;BME280_pressure;Samples;Min_cycle;Max_cycle;Signal;HPM_P1;HPM_P2
2022/10/02 00:02:01;;;;;;;;;;;;;;;;;;5113672;28;20023;-79
2022/10/02 00:04:47;;;;;;;5.20;3.58;;;;;;;;;;5113352;28;19998;-80
2022/10/02 00:07:15;;;;;;;5.47;3.42;;;;;;;;;;5112850;28;20422;-79
2022/10/02 00:09:47;;;;;;;7.78;3.85;;;;;;;;;;5112831;28;20390;-79
2022/10/02 00:12:18;;;;;;;6.28;3.22;;;;;;;;;;5097145;28;20062;-80
2022/10/02 00:14:45;;;;;;;6.75;3.42;;;;;;;;;;5110933;28;20051;-79
2022/10/02 00:17:32;;;;;;;5.72;3.28;;;;;;;;;;5112817;28;20090;-79
2022/10/02 00:19:59;;;;;;;6.68;3.88;;;;;;;;;;5113047;28;20551;-78
2022/10/02 00:22:44;;;;;;;5.03;3.85;;;;;;;;;;5111729;28;20027;-81
2022/10/02 00:25:20;;;;;;;5.63;3.30;;;;;;;;;;5111645;28;20024;-80
2022/10/02 00:28:05;;;;;;;7.38;3.55;;;;;;;;;;5113120;28;20240;-80
2022/10/02 00:30:36;;;;;;;7.38;3.72;;;;;;;;;;5096364;28;20046;-81
2022/10/02 00:33:21;;;;;;;4.40;3.33;;;;;;;;;;5095868;28;20032;-81
2022/10/02 00:35:54;;;;;;;6.15;3.33;;;;;;;;;;5092541;28;20020;-80
2022/10/02 00:38:23;;;;;;;5.47;3.45;;;;;;;;;;5092189;28;20036;-79
2022/10/02 00:40:52;;;;;;;13.00;4.18;;;;;;;;;;5092487;28;20116;-79
2022/10/02 00:43:29;;;;;;;5.80;3.10;;;;;;;;;;5092339;28;20107;-79
2022/10/02 00:46:09;;;;;;;6.03;3.60;;;;;;;;;;5092448;28;20043;-78
2022/10/02 00:48:48;;;;;;;5.90;3.65;;;;;;;;;;5110096;28;20024;-80
2022/10/02 00:51:22;;;;;;;7.97;3.20;;;;;;;;;;5115513;28;20039;-81
2022/10/02 00:54:07;;;;;;;4.72;3.35;;;;;;;;;;5115657;28;20032;-80
2022/10/02 00:56:33;;;;;;;;;;;;;;;;;;5116897;28;20031;-81
2022/10/02 00:59:02;;;;;;;8.13;4.57;;;;;;;;;;5116538;28;19911;-80
2022/10/02 01:01:47;;;;;;;9.20;5.05;;;;;;;;;;5116508;28;20019;-81
2022/10/02 01:04:15;;;;;;;6.95;3.75;;;;;;;;;;5116524;27;20032;-79
2022/10/02 01:06:41;;;;;;;4.47;3.35;;;;;;;;;;5101419;28;20028;-79
2022/10/02 01:09:07;;;;;;;3.75;2.83;;;;;;;;;;5107613;28;20032;-79
2022/10/02 01:11:35;;;;;;;5.03;3.35;;;;;;;;;;5116222;28;20039;-79
2022/10/02 01:14:01;;;;;;;6.15;3.22;;;;;;;;;;5116391;28;20069;-78
2022/10/02 01:16:27;;;;;;;5.90;3.80;;;;;;;;;;5115914;28;20077;-79
2022/10/02 01:18:53;;;;;;;6.68;3.45;;;;;;;;;;5116456;28;20063;-80
2022/10/02 01:21:32;;;;;;;6.82;2.92;;;;;;;;;;5116189;28;20027;-80
2022/10/02 01:24:17;;;;;;;4.50;2.92;;;;;;;;;;5109349;28;20103;-78
2022/10/02 01:26:43;;;;;;;6.18;3.05;;;;;;;;;;5095665;28;20111;-77
2022/10/02 01:29:09;;;;;;;4.90;2.97;;;;;;;;;;5112493;28;20023;-78
2022/10/02 01:31:35;;;;;;;4.57;2.13;;;;;;;;;;5115957;28;20035;-77
2022/10/02 01:34:02;;;;;;;3.42;2.33;;;;;;;;;;5115686;28;20023;-79
2022/10/02 01:36:28;;;;;;;5.63;2.40;;;;;;;;;;5115716;28;20080;-79
2022/10/02 01:38:54;;;;;;;3.15;2.33;;;;;;;;;;5115949;28;20059;-78
2022/10/02 01:41:20;;;;;;;6.28;2.35;;;;;;;;;;5115529;28;20031;-80
2022/10/02 01:43:58;;;;;;;6.20;2.65;;;;;;;;;;5115025;28;20032;-78
2022/10/02 01:46:24;;;;;;;3.10;2.00;;;;;;;;;;5115694;28;20040;-78
2022/10/02 01:49:08;;;;;;;4.63;2.50;;;;;;;;;;5115678;28;20034;-79
2022/10/02 01:51:53;;;;;;;5.15;3.05;;;;;;;;;;5115579;28;20058;-80
2022/10/02 01:54:21;;;;;;;5.25;2.95;;;;;;;;;;5115698;28;20072;-80
2022/10/02 01:56:48;;;;;;;5.47;3.08;;;;;;;;;;5115484;28;20114;-81
2022/10/02 01:59:24;;;;;;;8.77;6.13;;;;;;;;;;5115561;28;20028;-79
2022/10/02 02:01:53;;;;;;;7.93;5.03;;;;;;;;;;5097758;28;20114;-80
2022/10/02 02:04:23;;;;;;;6.18;3.45;;;;;;;;;;5094914;28;20038;-79
2022/10/02 02:06:55;;;;;;;6.70;3.28;;;;;;;;;;5095789;28;20016;-80
2022/10/02 02:09:40;;;;;;;5.15;3.58;;;;;;;;;;5094873;28;20028;-79
2022/10/02 02:12:11;;;;;;;4.65;3.45;;;;;;;;;;5094807;28;20359;-79
2022/10/02 02:14:42;;;;;;;7.13;3.60;;;;;;;;;;5094709;28;20063;-80
2022/10/02 02:17:17;;;;;;;4.72;3.45;;;;;;;;;;5094513;28;20048;-80
2022/10/02 02:19:48;;;;;;;5.63;3.63;;;;;;;;;;5106599;28;20028;-80
2022/10/02 02:22:23;;;;;;;6.03;3.97;;;;;;;;;;5115319;28;20020;-79
2022/10/02 02:24:52;;;;;;;5.22;3.45;;;;;;;;;;5113548;28;20386;-77
2022/10/02 02:27:22;;;;;;;4.55;3.22;;;;;;;;;;5115014;28;20024;-79
2022/10/02 02:29:49;;;;;;;5.07;2.95;;;;;;;;;;5114911;28;20077;-79
2022/10/02 02:32:18;;;;;;;5.10;3.30;;;;;;;;;;5115131;28;20027;-79
2022/10/02 02:34:46;;;;;;;4.68;3.05;;;;;;;;;;5099807;28;20032;-79
2022/10/02 02:37:15;;;;;;;5.05;3.35;;;;;;;;;;5094253;28;20028;-80
2022/10/02 02:39:41;;;;;;;6.15;3.60;;;;;;;;;;5094124;28;20024;-80
2022/10/02 02:42:09;;;;;;;4.35;3.70;;;;;;;;;;5094442;28;20032;-80
2022/10/02 02:44:39;;;;;;;4.88;3.38;;;;;;;;;;5094153;28;20035;-79
2022/10/02 02:47:31;;;;;;;6.90;3.85;;;;;;;;;;5094435;28;20123;-80
2022/10/02 02:50:08;;;;;;;4.10;2.90;;;;;;;;;;5091431;28;20111;-81
2022/10/02 02:52:41;;;;;;;12.02;10.77;;;;;;;;;;5103914;28;20031;-80
2022/10/02 02:55:13;;;;;;;3.92;3.53;;;;;;;;;;5114374;28;20031;-80
2022/10/02 02:57:48;;;;;;;6.22;3.50;;;;;;;;;;5114459;28;20478;-80
2022/10/02 03:00:15;;;;;;;4.07;3.13;;;;;;;;;;5114421;28;20494;-80
2022/10/02 03:02:41;;;;;;;4.75;3.50;;;;;;;;;;5113918;28;20106;-79
2022/10/02 03:05:14;;;;;;;6.75;3.42;;;;;;;;;;5114481;28;20107;-80
2022/10/02 03:07:45;;;;;;;4.23;3.23;;;;;;;;;;5113998;28;20020;-78
2022/10/02 03:10:18;;;;;;;4.32;2.40;;;;;;;;;;5110080;28;20024;-78
2022/10/02 03:12:51;;;;;;;2.78;2.55;;;;;;;;;;5093435;28;20032;-76
2022/10/02 03:15:36;;;;;;;5.05;2.47;;;;;;;;;;5093557;28;20036;-80
2022/10/02 03:18:02;;;;;;;7.40;3.00;;;;;;;;;;5093620;28;20044;-80
2022/10/02 03:20:28;;;;;;;4.53;2.85;;;;;;;;;;5093600;28;20081;-79
2022/10/02 03:22:54;;;;;;;4.68;2.72;;;;;;;;;;5093579;28;20028;-79
2022/10/02 03:25:25;;;;;;;5.15;2.60;;;;;;;;;;5093218;28;20378;-80
2022/10/02 03:28:11;;;;;;;4.72;2.50;;;;;;;;;;5093450;28;20085;-79
2022/10/02 03:30:38;;;;;;;5.38;2.55;;;;;;;;;;5092863;28;20081;-80
2022/10/02 03:33:05;;;;;;;5.57;2.65;;;;;;;;;;5093158;28;20374;-79
2022/10/02 03:35:32;;;;;;;5.72;2.53;;;;;;;;;;5093245;28;20032;-81
2022/10/02 03:38:03;;;;;;;4.72;2.70;;;;;;;;;;5093149;28;20396;-79
2022/10/02 03:40:29;;;;;;;4.82;3.13;;;;;;;;;;5093384;28;20501;-80
2022/10/02 03:42:57;;;;;;;4.07;2.15;;;;;;;;;;5093033;28;20035;-79
2022/10/02 03:45:23;;;;;;;4.22;2.50;;;;;;;;;;5093271;28;20104;-81
2022/10/02 03:47:50;;;;;;;3.65;2.58;;;;;;;;;;5104154;28;20027;-80
2022/10/02 03:50:16;;;;;;;4.38;2.45;;;;;;;;;;5111416;28;20149;-80
2022/10/02 03:52:43;;;;;;;8.00;2.22;;;;;;;;;;5105731;28;20024;-79
2022/10/02 03:55:33;;;;;;;3.58;2.90;;;;;;;;;;5099790;28;20028;-78
2022/10/02 03:58:02;;;;;;;4.15;2.40;;;;;;;;;;5107052;28;20032;-80
2022/10/02 04:00:48;;;;;;;3.88;2.22;;;;;;;;;;5098030;28;20024;-82
2022/10/02 04:03:21;;;;;;;5.70;2.20;;;;;;;;;;5094367;28;20496;-78
2022/10/02 04:06:05;;;;;;;4.70;2.35;;;;;;;;;;5092732;28;20028;-78
2022/10/02 04:08:35;;;;;;;4.90;2.78;;;;;;;;;;5092610;28;20017;-78
2022/10/02 04:11:20;;;;;;;4.93;2.05;;;;;;;;;;5092318;28;20063;-78
2022/10/02 04:13:52;;;;;;;3.63;2.25;;;;;;;;;;5092342;28;20028;-78
2022/10/02 04:16:20;;;;;;;3.35;1.95;;;;;;;;;;5092424;28;20410;-77
2022/10/02 04:19:04;;;;;;;4.70;1.90;;;;;;;;;;5092230;28;20085;-79
2022/10/02 04:21:30;;;;;;;3.30;2.22;;;;;;;;;;5092129;28;20028;-78
2022/10/02 04:24:02;;;;;;;4.40;2.08;;;;;;;;;;5092074;28;20044;-76
2022/10/02 04:26:30;;;;;;;6.45;2.10;;;;;;;;;;5092188;28;20028;-78
2022/10/02 04:28:59;;;;;;;3.22;2.28;;;;;;;;;;5092388;28;20036;-79
2022/10/02 04:31:26;;;;;;;6.00;2.00;;;;;;;;;;5092125;28;20533;-79
2022/10/02 04:33:54;;;;;;;6.30;2.70;;;;;;;;;;5092314;28;20114;-75
2022/10/02 04:36:27;;;;;;;5.20;2.30;;;;;;;;;;5092073;28;20490;-79
2022/10/02 04:39:19;;;;;;;4.47;2.50;;;;;;;;;;5092315;28;20055;-79
2022/10/02 04:41:52;;;;;;;5.65;2.08;;;;;;;;;;5068759;28;20117;-79
2022/10/02 04:44:29;;;;;;;5.40;2.63;;;;;;;;;;5092184;28;20064;-76
2022/10/02 04:47:02;;;;;;;4.30;2.28;;;;;;;;;;5091686;28;20049;-77
2022/10/02 04:49:47;;;;;;;4.05;2.00;;;;;;;;;;5092091;28;20466;-77
2022/10/02 04:52:13;;;;;;;9.43;5.65;;;;;;;;;;5092085;28;20032;-79
2022/10/02 04:54:58;;;;;;;6.30;3.20;;;;;;;;;;5091706;28;20028;-78
2022/10/02 04:57:24;;;;;;;;;;;;;;;;;;5092306;28;20043;-77
2022/10/02 05:00:09;;;;;;;5.20;3.55;;;;;;;;;;5092124;28;19904;-78
2022/10/02 05:02:44;;;;;;;7.05;2.38;;;;;;;;;;5090745;28;20031;-77
2022/10/02 05:05:26;;;;;;;5.78;2.58;;;;;;;;;;5091952;28;20164;-77
2022/10/02 05:08:19;;;;;;;4.15;2.53;;;;;;;;;;5110399;28;20027;-77
2022/10/02 05:10:48;;;;;;;4.35;1.98;;;;;;;;;;5081242;28;20048;-77
2022/10/02 05:13:32;;;;;;;4.72;2.08;;;;;;;;;;5112158;28;20062;-75
2022/10/02 05:16:07;;;;;;;5.43;2.10;;;;;;;;;;5111726;28;20074;-76
2022/10/02 05:18:37;;;;;;;5.63;2.03;;;;;;;;;;5112238;28;20075;-77
2022/10/02 05:21:23;;;;;;;5.65;1.85;;;;;;;;;;5111849;28;20026;-76
2022/10/02 05:23:55;;;;;;;3.58;1.70;;;;;;;;;;5098288;28;20115;-76
2022/10/02 05:26:24;;;;;;;4.00;2.03;;;;;;;;;;5112086;28;20446;-76
2022/10/02 05:29:04;;;;;;;3.85;1.95;;;;;;;;;;5111771;28;20474;-77
2022/10/02 05:31:36;;;;;;;2.88;1.50;;;;;;;;;;5111959;28;20102;-77
2022/10/02 05:34:06;;;;;;;4.72;1.50;;;;;;;;;;5112188;28;20034;-76
2022/10/02 05:36:35;;;;;;;3.30;1.70;;;;;;;;;;5112958;28;20038;-76
2022/10/02 05:39:04;;;;;;;4.57;1.58;;;;;;;;;;5115815;28;20024;-76
2022/10/02 05:41:47;;;;;;;3.90;1.92;;;;;;;;;;5115624;28;20374;-78
2022/10/02 05:44:15;;;;;;;3.58;1.73;;;;;;;;;;5115462;28;20035;-76
2022/10/02 05:46:52;;;;;;;1.50;1.25;;;;;;;;;;5115752;28;20023;-78
2022/10/02 05:49:22;;;;;;;3.63;1.60;;;;;;;;;;5115770;28;20028;-78
2022/10/02 05:51:54;;;;;;;1.83;0.95;;;;;;;;;;5115409;28;20412;-78
2022/10/02 05:54:20;;;;;;;1.95;0.93;;;;;;;;;;5115541;28;20497;-78
2022/10/02 05:56:50;;;;;;;1.08;0.98;;;;;;;;;;5115145;28;20030;-79
2022/10/02 05:59:17;;;;;;;2.13;0.93;;;;;;;;;;5115325;28;20122;-77
2022/10/02 06:01:47;;;;;;;2.45;1.23;;;;;;;;;;5114861;28;20035;-78
2022/10/02 06:04:13;;;;;;;4.38;1.00;;;;;;;;;;5115490;28;20031;-80
2022/10/02 06:06:44;;;;;;;4.13;1.10;;;;;;;;;;5115026;28;20031;-79
2022/10/02 06:09:29;;;;;;;1.60;0.98;;;;;;;;;;5115323;28;20478;-77
2022/10/02 06:11:59;;;;;;;2.08;0.80;;;;;;;;;;5115090;28;20039;-78
2022/10/02 06:14:43;;;;;;;2.40;0.85;;;;;;;;;;5114796;28;20073;-78
2022/10/02 06:17:46;;;;;;;1.75;0.88;;;;;;;;;;5114709;28;20090;-77
2022/10/02 06:20:14;;;;;;;1.90;0.80;;;;;;;;;;5032262;28;20033;-78
2022/10/02 06:22:43;;;;;;;2.72;0.80;;;;;;;;;;5100574;27;20118;-78
2022/10/02 06:25:09;;;;;;;2.08;0.85;;;;;;;;;;5114900;28;20055;-80
2022/10/02 06:27:38;;;;;;;3.67;1.40;;;;;;;;;;5114527;28;20035;-76
2022/10/02 06:30:05;;;;;;;1.40;0.68;;;;;;;;;;5114727;28;20453;-78
2022/10/02 06:32:37;;;;;;;0.73;0.50;;;;;;;;;;5114513;28;20023;-79
2022/10/02 06:35:09;;;;;;;3.47;0.73;;;;;;;;;;5114828;28;20055;-78
2022/10/02 06:37:41;;;;;;;1.88;1.20;;;;;;;;;;5114430;28;20059;-77
2022/10/02 06:40:13;;;;;;;2.95;0.52;;;;;;;;;;5114576;28;20073;-76
2022/10/02 06:42:42;;;;;;;1.73;1.00;;;;;;;;;;5114623;28;20107;-77
2022/10/02 06:45:17;;;;;;;1.58;0.60;;;;;;;;;;5114337;28;20106;-77
2022/10/02 06:47:56;;;;;;;1.48;0.80;;;;;;;;;;5113087;28;20081;-79
2022/10/02 06:50:22;;;;;;;2.03;0.75;;;;;;;;;;5114250;28;20067;-75
2022/10/02 06:53:07;;;;;;;2.83;1.27;;;;;;;;;;5114426;28;20465;-79
2022/10/02 06:55:41;;;;;;;3.65;1.10;;;;;;;;;;5114236;28;20027;-77
2022/10/02 06:58:07;;;;;;;2.15;1.20;;;;;;;;;;5114160;28;20036;-76
2022/10/02 07:00:37;;;;;;;2.30;0.93;;;;;;;;;;5114374;28;20030;-74
2022/10/02 07:03:21;;;;;;;1.27;0.88;;;;;;;;;;5114189;28;20506;-76
2022/10/02 07:06:06;;;;;;;2.05;0.60;;;;;;;;;;5114118;28;20080;-78
2022/10/02 07:08:36;;;;;;;2.28;0.70;;;;;;;;;;5107798;28;20458;-76
2022/10/02 07:11:02;;;;;;;1.65;0.60;;;;;;;;;;5108499;28;20024;-77
2022/10/02 07:13:43;;;;;;;2.35;1.02;;;;;;;;;;5113833;28;20031;-78
2022/10/02 07:16:15;;;;;;;1.65;0.93;;;;;;;;;;5113401;28;20398;-79
2022/10/02 07:19:00;;;;;;;2.90;1.15;;;;;;;;;;5112747;28;20131;-79
2022/10/02 07:21:41;;;;;;;2.13;1.10;;;;;;;;;;5093350;28;20081;-76
2022/10/02 07:24:26;;;;;;;3.00;1.10;;;;;;;;;;5106121;28;20055;-77
2022/10/02 07:27:13;;;;;;;2.67;1.13;;;;;;;;;;5112318;28;20447;-80
2022/10/02 07:30:01;;;;;;;3.17;1.02;;;;;;;;;;5100279;28;20123;-76
2022/10/02 07:32:49;;;;;;;0.95;0.75;;;;;;;;;;5107578;28;20038;-77
2022/10/02 07:35:25;;;;;;;1.58;0.90;;;;;;;;;;5106552;28;20462;-81
2022/10/02 07:38:00;;;;;;;2.58;1.05;;;;;;;;;;5105628;28;20058;-77
2022/10/02 07:40:27;;;;;;;3.72;1.80;;;;;;;;;;5092911;28;20494;-78
2022/10/02 07:43:02;;;;;;;3.17;1.02;;;;;;;;;;5093190;28;20471;-77
2022/10/02 07:45:40;;;;;;;1.55;0.93;;;;;;;;;;5093039;28;20031;-78
2022/10/02 07:48:31;;;;;;;1.45;0.63;;;;;;;;;;5092531;28;20023;-77
2022/10/02 07:51:45;;;;;;;3.22;1.10;;;;;;;;;;5092871;28;20032;-78
2022/10/02 07:54:26;;;;;;;2.15;1.38;;;;;;;;;;5092683;28;20398;-79
2022/10/02 07:56:54;;;;;;;1.63;1.10;;;;;;;;;;5075584;28;20521;-78
2022/10/02 07:59:21;;;;;;;2.33;0.65;;;;;;;;;;5092313;28;20020;-77
2022/10/02 08:01:49;;;;;;;1.10;0.60;;;;;;;;;;5092657;28;20027;-76
2022/10/02 08:04:24;;;;;;;3.15;0.63;;;;;;;;;;5092713;28;20031;-77
2022/10/02 08:06:52;;;;;;;3.50;0.60;;;;;;;;;;5092127;28;20077;-77
2022/10/02 08:09:22;;;;;;;2.85;0.70;;;;;;;;;;5098859;28;20028;-78
2022/10/02 08:11:59;;;;;;;1.75;1.30;;;;;;;;;;5092212;28;20047;-77
2022/10/02 08:14:29;;;;;;;2.13;0.90;;;;;;;;;;5092521;28;20482;-77
2022/10/02 08:16:57;;;;;;;2.08;0.93;;;;;;;;;;5092010;28;20055;-77
2022/10/02 08:19:31;;;;;;;3.15;1.30;;;;;;;;;;5092475;28;20127;-80
2022/10/02 08:21:59;;;;;;;2.15;0.70;;;;;;;;;;5092269;28;20085;-78
2022/10/02 08:24:46;;;;;;;2.55;1.00;;;;;;;;;;5092166;28;20103;-76
2022/10/02 08:27:17;;;;;;;2.88;1.17;;;;;;;;;;5092013;28;20055;-78
2022/10/02 08:29:46;;;;;;;4.93;2.42;;;;;;;;;;5092520;28;20439;-76
2022/10/02 08:32:13;;;;;;;2.05;0.80;;;;;;;;;;5092165;28;20035;-76
2022/10/02 08:34:39;;;;;;;1.33;0.63;;;;;;;;;;5092447;28;20026;-77
2022/10/02 08:37:13;;;;;;;2.55;1.08;;;;;;;;;;5091793;28;20020;-77
2022/10/02 08:39:43;;;;;;;2.37;1.30;;;;;;;;;;5092266;28;20471;-79
2022/10/02 08:42:27;;;;;;;3.83;1.88;;;;;;;;;;5091938;28;20057;-78
2022/10/02 08:45:02;;;;;;;3.38;1.77;;;;;;;;;;5091706;28;20020;-75
2022/10/02 08:47:28;;;;;;;2.30;1.00;;;;;;;;;;5091925;28;20071;-78
2022/10/02 08:50:00;;;;;;;1.75;0.93;;;;;;;;;;5092046;28;20028;-79
2022/10/02 08:52:45;;;;;;;1.45;1.00;;;;;;;;;;5092176;28;20035;-75
2022/10/02 08:55:21;;;;;;;1.67;0.90;;;;;;;;;;5091780;28;20481;-77
2022/10/02 08:57:47;;;;;;;1.88;1.30;;;;;;;;;;5091999;28;20040;-78
2022/10/02 09:00:19;;;;;;;2.30;0.70;;;;;;;;;;5091689;28;20055;-78
2022/10/02 09:03:04;;;;;;;1.20;0.85;;;;;;;;;;5092037;28;20028;-76
2022/10/02 09:05:30;;;;;;;;;;;;;;;;;;5092317;28;20040;-76
2022/10/02 09:07:56;;;;;;;1.88;0.98;;;;;;;;;;5091737;28;20274;-76
2022/10/02 09:10:44;;;;;;;2.35;1.33;;;;;;;;;;5092985;28;20038;-73
2022/10/02 09:13:29;;;;;;;1.65;1.15;;;;;;;;;;5095546;28;20107;-74
2022/10/02 09:16:07;;;;;;;3.42;1.33;;;;;;;;;;5095509;28;20044;-74
2022/10/02 09:18:33;;;;;;;1.15;0.93;;;;;;;;;;5095689;28;20063;-75
2022/10/02 09:21:03;;;;;;;2.65;1.13;;;;;;;;;;5095726;28;20024;-76
2022/10/02 09:23:47;;;;;;;1.63;1.02;;;;;;;;;;5095350;28;20031;-77
2022/10/02 09:26:18;;;;;;;1.20;0.90;;;;;;;;;;5095538;28;20020;-78
2022/10/02 09:29:03;;;;;;;4.13;1.23;;;;;;;;;;5095507;28;20016;-76
2022/10/02 09:31:38;;;;;;;1.67;0.80;;;;;;;;;;5095550;28;20103;-76
2022/10/02 09:34:23;;;;;;;2.15;0.80;;;;;;;;;;5095125;28;20058;-78
2022/10/02 09:37:08;;;;;;;1.42;0.80;;;;;;;;;;5101234;28;20123;-77
2022/10/02 09:39:34;;;;;;;;;;;;;;;;;;5114013;28;20027;-76
2022/10/02 09:42:00;;;;;;;1.63;1.25;;;;;;;;;;5115867;28;20285;-83
2022/10/02 09:44:35;;;;;;;2.22;1.02;;;;;;;;;;5115616;28;20070;-78
2022/10/02 09:47:19;;;;;;;2.38;0.70;;;;;;;;;;5115448;28;20031;-76
2022/10/02 09:50:04;;;;;;;2.38;1.30;;;;;;;;;;5115361;28;20072;-77
2022/10/02 09:52:49;;;;;;;4.03;1.75;;;;;;;;;;5115267;28;20023;-82
2022/10/02 09:55:18;;;;;;;3.47;1.05;;;;;;;;;;5115113;28;20027;-79
2022/10/02 09:57:50;;;;;;;1.33;1.05;;;;;;;;;;5115371;28;20059;-77
2022/10/02 10:00:16;;;;;;;10.73;4.15;;;;;;;;;;5115281;28;20023;-77
2022/10/02 10:02:48;;;;;;;2.88;1.52;;;;;;;;;;5115394;28;20031;-74
2022/10/02 10:05:33;;;;;;;3.67;2.85;;;;;;;;;;5115001;28;20056;-81
2022/10/02 10:08:09;;;;;;;2.45;1.38;;;;;;;;;;5115016;28;20121;-81
2022/10/02 10:10:36;;;;;;;2.80;1.35;;;;;;;;;;5115287;28;20023;-76
2022/10/02 10:13:21;;;;;;;6.13;3.28;;;;;;;;;;5106226;28;20038;-76
2022/10/02 10:15:47;;;;;;;1.98;1.63;;;;;;;;;;5102385;28;20064;-78
2022/10/02 10:18:32;;;;;;;2.95;2.08;;;;;;;;;;5094469;28;20547;-78
2022/10/02 10:21:07;;;;;;;1.38;0.73;;;;;;;;;;5107396;28;20027;-76
2022/10/02 10:23:34;;;;;;;;;;;;;;;;;;5114513;28;20023;-76
2022/10/02 10:26:19;;;;;;;1.30;0.88;;;;;;;;;;5114774;28;20382;-78
2022/10/02 10:28:45;;;;;;;1.70;1.38;;;;;;;;;;5114885;28;20020;-78
2022/10/02 10:31:11;;;;;;;1.30;0.80;;;;;;;;;;5105655;28;20105;-77
2022/10/02 10:33:56;;;;;;;1.33;0.75;;;;;;;;;;5114970;28;20032;-81
2022/10/02 10:39:31;;;;;;;1.58;1.10;;;;;;;;;;5094418;28;20047;-76
2022/10/02 10:42:16;;;;;;;0.98;0.82;;;;;;;;;;5094393;28;20128;-80
2022/10/02 10:45:01;;;;;;;1.75;0.85;;;;;;;;;;5094260;28;20103;-79
2022/10/02 10:47:34;;;;;;;1.70;0.70;;;;;;;;;;5094239;28;20054;-76
2022/10/02 10:50:19;;;;;;;3.03;1.27;;;;;;;;;;5094057;28;20032;-79
2022/10/02 10:52:51;;;;;;;3.40;2.03;;;;;;;;;;5093683;28;20028;-78
2022/10/02 10:55:18;;;;;;;3.90;1.80;;;;;;;;;;5097085;28;20047;-79
2022/10/02 10:57:54;;;;;;;0.98;0.60;;;;;;;;;;5104896;28;20031;-76
2022/10/02 11:00:20;;;;;;;1.42;1.10;;;;;;;;;;5114124;28;20028;-77
2022/10/02 11:02:52;;;;;;;3.55;2.75;;;;;;;;;;5114362;28;20469;-78
2022/10/02 11:05:38;;;;;;;1.67;0.88;;;;;;;;;;5113583;28;20026;-78
2022/10/02 11:08:23;;;;;;;1.75;0.90;;;;;;;;;;5110191;28;20023;-78
2022/10/02 11:11:01;;;;;;;1.73;1.25;;;;;;;;;;5111536;28;20024;-79
2022/10/02 11:13:46;;;;;;;10.48;7.55;;;;;;;;;;5103872;28;20067;-79
2022/10/02 11:16:30;;;;;;;2.33;1.30;;;;;;;;;;5113590;28;20506;-81
2022/10/02 11:18:58;;;;;;;;;;;;;;;;;;5104317;28;20070;-78
2022/10/02 11:21:33;;;;;;;1.83;0.93;;;;;;;;;;5104683;27;20020;-77
2022/10/02 11:24:02;;;;;;;0.85;0.60;;;;;;;;;;5113448;28;20130;-75
2022/10/02 11:26:41;;;;;;;1.25;0.70;;;;;;;;;;5093380;28;20027;-79
2022/10/02 11:29:22;;;;;;;0.60;0.60;;;;;;;;;;5098785;28;20032;-78
2022/10/02 11:32:03;;;;;;;2.42;1.08;;;;;;;;;;5113579;28;20088;-81
2022/10/02 11:34:44;;;;;;;2.35;0.82;;;;;;;;;;5112386;28;20518;-78
2022/10/02 11:37:17;;;;;;;1.50;0.70;;;;;;;;;;5113414;28;20486;-77
2022/10/02 11:39:58;;;;;;;1.20;0.73;;;;;;;;;;5113618;28;20501;-76
2022/10/02 11:42:42;;;;;;;2.08;1.08;;;;;;;;;;5113567;28;20034;-77
2022/10/02 11:45:10;;;;;;;;;;;;;;;;;;5107861;28;20473;-79
2022/10/02 11:47:36;;;;;;;4.30;3.50;;;;;;;;;;5092961;28;19912;-79
2022/10/02 11:50:34;;;;;;;3.03;1.88;;;;;;;;;;5092941;28;20032;-81
2022/10/02 11:53:00;;;;;;;1.60;0.70;;;;;;;;;;5048691;28;20041;-78
2022/10/02 11:55:48;;;;;;;2.30;1.33;;;;;;;;;;5092696;28;20020;-80
2022/10/02 11:58:40;;;;;;;1.75;1.13;;;;;;;;;;5092460;28;20028;-80
2022/10/02 12:01:06;;;;;;;1.27;0.70;;;;;;;;;;5092865;28;20118;-79
2022/10/02 12:03:35;;;;;;;14.10;11.55;;;;;;;;;;5092623;28;20047;-79
2022/10/02 12:06:09;;;;;;;1.52;0.82;;;;;;;;;;5092874;28;20035;-78
2022/10/02 12:08:54;;;;;;;1.40;0.70;;;;;;;;;;5092537;28;20020;-80
2022/10/02 12:11:40;;;;;;;2.22;0.73;;;;;;;;;;5092468;28;20028;-79
2022/10/02 12:14:41;;;;;;;1.55;0.90;;;;;;;;;;5092540;28;20186;-77
2022/10/02 12:17:33;;;;;;;1.50;0.40;;;;;;;;;;5049324;28;20052;-81
2022/10/02 12:28:45;;;;;;;4.78;4.30;;;;;;;;;;5092976;28;20035;-78
2022/10/02 12:31:27;;;;;;;1.90;0.93;;;;;;;;;;5092284;28;20031;-78
2022/10/02 12:34:00;;;;;;;1.52;0.98;;;;;;;;;;5092426;28;20028;-76
2022/10/02 12:36:32;;;;;;;2.70;1.80;;;;;;;;;;5092536;28;20491;-80
2022/10/02 12:39:06;;;;;;;1.52;0.60;;;;;;;;;;5092168;28;20036;-78
2022/10/02 12:41:35;;;;;;;2.15;0.50;;;;;;;;;;5092306;28;20024;-81
2022/10/02 12:44:22;;;;;;;1.95;1.40;;;;;;;;;;5092338;28;20125;-79
2022/10/02 12:46:58;;;;;;;1.98;0.75;;;;;;;;;;5095984;28;20031;-77
2022/10/02 12:49:44;;;;;;;1.95;0.80;;;;;;;;;;5096296;28;20070;-80
2022/10/02 12:52:29;;;;;;;1.88;0.50;;;;;;;;;;5096246;28;20106;-80
2022/10/02 12:54:55;;;;;;;0.70;0.43;;;;;;;;;;5096261;28;20024;-80
2022/10/02 13:00:16;;;;;;;1.30;0.40;;;;;;;;;;5096306;28;20449;-77
2022/10/02 13:02:51;;;;;;;1.45;0.80;;;;;;;;;;5096183;28;20156;-82
2022/10/02 13:05:38;;;;;;;1.88;0.60;;;;;;;;;;5095992;28;20024;-81
2022/10/02 13:08:30;;;;;;;1.10;0.60;;;;;;;;;;5095922;28;20020;-81
2022/10/02 13:11:08;;;;;;;1.63;1.00;;;;;;;;;;5065093;28;20047;-79
2022/10/02 13:13:58;;;;;;;2.40;1.23;;;;;;;;;;5095735;28;20028;-79
2022/10/02 13:16:30;;;;;;;1.83;0.82;;;;;;;;;;5095483;28;20177;-81
2022/10/02 13:19:11;;;;;;;1.77;0.50;;;;;;;;;;5095897;28;20079;-78
2022/10/02 13:21:37;;;;;;;2.75;1.95;;;;;;;;;;5095938;28;20032;-81
2022/10/02 13:24:04;;;;;;;4.57;1.17;;;;;;;;;;5095625;28;20031;-78
2022/10/02 13:26:30;;;;;;;2.92;0.80;;;;;;;;;;5095751;28;20024;-80
2022/10/02 13:29:15;;;;;;;2.00;0.70;;;;;;;;;;5094508;28;20028;-79
2022/10/02 13:32:00;;;;;;;3.05;0.70;;;;;;;;;;5095470;28;20023;-78
2022/10/02 13:34:34;;;;;;;1.17;0.68;;;;;;;;;;5095630;28;20030;-84
2022/10/02 13:37:14;;;;;;;1.85;0.70;;;;;;;;;;5095639;28;20028;-78
2022/10/02 13:39:59;;;;;;;2.63;0.60;;;;;;;;;;5095514;28;20032;-79
2022/10/02 13:43:04;;;;;;;1.80;0.68;;;;;;;;;;5095503;28;20020;-81
2022/10/02 13:45:37;;;;;;;1.05;0.70;;;;;;;;;;5013217;28;20049;-81
2022/10/02 13:48:04;;;;;;;1.70;0.55;;;;;;;;;;5013459;28;20038;-80
2022/10/02 13:50:42;;;;;;;2.10;0.80;;;;;;;;;;5056700;28;20040;-79
2022/10/02 13:53:08;;;;;;;0.85;0.70;;;;;;;;;;5095420;28;20024;-79
2022/10/02 13:55:42;;;;;;;2.35;0.90;;;;;;;;;;5095070;28;20078;-77
2022/10/02 13:58:19;;;;;;;1.13;0.55;;;;;;;;;;5093791;28;20040;-82
2022/10/02 14:01:20;;;;;;;1.00;0.45;;;;;;;;;;5095074;28;20509;-81
2022/10/02 14:03:56;;;;;;;3.22;0.50;;;;;;;;;;5012957;28;20041;-80
2022/10/02 14:06:40;;;;;;;3.20;1.20;;;;;;;;;;5084153;28;20067;-78
2022/10/02 14:09:26;;;;;;;2.65;1.20;;;;;;;;;;5094929;28;20035;-80
2022/10/02 14:12:11;;;;;;;2.60;0.77;;;;;;;;;;5053876;28;20032;-78
2022/10/02 14:14:37;;;;;;;;;;;;;;;;;;5095308;28;20103;-79
2022/10/02 14:17:21;;;;;;;2.05;0.60;;;;;;;;;;5094238;28;20015;-81
2022/10/02 14:19:56;;;;;;;0.73;0.50;;;;;;;;;;5094617;28;20031;-82
2022/10/02 14:22:25;;;;;;;0.88;0.50;;;;;;;;;;5094870;28;20089;-79
2022/10/02 14:27:51;;;;;;;1.75;0.40;;;;;;;;;;5094513;28;20039;-80
2022/10/02 14:30:20;;;;;;;2.33;0.57;;;;;;;;;;5094660;28;20114;-80
2022/10/02 14:32:55;;;;;;;2.08;1.00;;;;;;;;;;5093365;28;20031;-80
2022/10/02 14:35:32;;;;;;;4.22;1.70;;;;;;;;;;5094648;28;20084;-79
2022/10/02 14:38:08;;;;;;;2.67;1.40;;;;;;;;;;5094309;28;20032;-80
2022/10/02 14:40:45;;;;;;;2.10;1.10;;;;;;;;;;5094381;28;20104;-81
2022/10/02 14:43:17;;;;;;;1.27;0.73;;;;;;;;;;5094515;28;20032;-80
2022/10/02 14:46:02;;;;;;;3.92;1.38;;;;;;;;;;5094266;28;20028;-79
2022/10/02 14:48:47;;;;;;;2.03;0.70;;;;;;;;;;5094024;28;20543;-80
2022/10/02 14:51:13;;;;;;;2.03;1.05;;;;;;;;;;5094301;28;20024;-78
2022/10/02 14:53:39;;;;;;;1.83;0.70;;;;;;;;;;5094127;28;20536;-81
2022/10/02 14:56:24;;;;;;;2.55;0.85;;;;;;;;;;5093880;28;20031;-78
2022/10/02 14:58:55;;;;;;;2.97;1.27;;;;;;;;;;5093635;28;20036;-82
2022/10/02 15:01:28;;;;;;;3.25;1.10;;;;;;;;;;5094099;28;20031;-80
2022/10/02 15:04:00;;;;;;;1.30;0.80;;;;;;;;;;5093789;28;20060;-79
2022/10/02 15:06:55;;;;;;;3.33;2.15;;;;;;;;;;5093898;28;20444;-79
2022/10/02 15:09:39;;;;;;;5.38;2.75;;;;;;;;;;5093462;28;20051;-80
2022/10/02 15:12:05;;;;;;;;;;;;;;;;;;5094132;28;20106;-79
2022/10/02 15:14:50;;;;;;;6.10;2.05;;;;;;;;;;5093984;28;19947;-82
2022/10/02 15:20:29;;;;;;;4.60;1.92;;;;;;;;;;5093820;28;20039;-79
2022/10/02 15:23:02;;;;;;;2.22;1.30;;;;;;;;;;5092530;28;20059;-80
2022/10/02 15:25:47;;;;;;;2.67;0.98;;;;;;;;;;5093705;28;20032;-79
2022/10/02 15:28:20;;;;;;;2.40;1.27;;;;;;;;;;5093536;28;20455;-80
2022/10/02 15:30:52;;;;;;;2.78;1.60;;;;;;;;;;5093376;28;20089;-80
2022/10/02 15:33:29;;;;;;;3.35;1.50;;;;;;;;;;5093511;28;20102;-80
2022/10/02 15:36:13;;;;;;;6.18;1.70;;;;;;;;;;5093429;28;20089;-79
2022/10/02 15:38:39;;;;;;;;;;;;;;;;;;5093640;28;20059;-80
2022/10/02 15:41:12;;;;;;;3.65;1.40;;;;;;;;;;5093341;28;20393;-79
2022/10/02 15:43:38;;;;;;;4.57;1.88;;;;;;;;;;5093285;28;20024;-79
2022/10/02 15:46:07;;;;;;;4.53;1.90;;;;;;;;;;5093276;28;20428;-80
2022/10/02 15:48:52;;;;;;;3.88;2.60;;;;;;;;;;5093211;28;20077;-81
2022/10/02 15:51:36;;;;;;;4.43;2.42;;;;;;;;;;5093140;28;20095;-79
2022/10/02 15:54:08;;;;;;;2.72;1.25;;;;;;;;;;5093017;28;20028;-80